Time;durP1;ratioP1;P1;durP2;ratioP2;P2;SDS_P1;SDS_P2;PMS_P1;PMS_P2;Temp;Humidity;BMP_temperature;BMP_pressure;BME280_temperature;BME280_humidity;BME280_pressure;Samples;Min_cycle;Max_cycle;Signal;HPM_P1;HPM_P2
2023/07/29 00:00:31;;;;;;;;;;;24.00;45.30;;;;;;5042197;28;88396;-45
2023/07/29 00:02:56;;;;;;;;;;;24.00;45.30;;;;;;5042880;28;88572;-45
2023/07/29 00:05:22;;;;;;;;;;;24.00;45.30;;;;;;5041495;28;87165;-45
2023/07/29 00:07:47;;;;;;;;;;;24.00;45.30;;;;;;5042608;28;87548;-46
2023/07/29 00:10:13;;;;;;;;;;;24.00;45.30;;;;;;5040778;28;88165;-46
2023/07/29 00:12:38;;;;;;;;;;;24.00;45.30;;;;;;5043069;27;87115;-46
2023/07/29 00:15:04;;;;;;;;;;;23.90;45.20;;;;;;5043052;28;87206;-45
2023/07/29 00:17:30;;;;;;;;;;;24.00;45.30;;;;;;5046280;28;87333;-47
2023/07/29 00:19:55;;;;;;;;;;;23.90;45.90;;;;;;5040731;28;87351;-46
2023/07/29 00:22:21;;;;;;;;;;;23.90;45.30;;;;;;5032765;28;90045;-47
2023/07/29 00:24:51;;;;;;;;;;;24.00;45.30;;;;;;5041669;28;88122;-46
2023/07/29 00:27:16;;;;;;;;;;;23.90;45.30;;;;;;5041060;28;87668;-45
2023/07/29 00:29:42;;;;;;;;;;;23.90;45.30;;;;;;5042395;28;88053;-48
2023/07/29 00:32:07;;;;;;;;;;;23.90;45.30;;;;;;5042795;28;87181;-45
2023/07/29 00:34:33;;;;;;;;;;;23.90;45.30;;;;;;5042529;28;88727;-47
2023/07/29 00:36:58;;;;;;;;;;;23.80;45.40;;;;;;5040262;28;88264;-48
2023/07/29 00:39:24;;;;;;;;;;;23.90;45.40;;;;;;5044983;28;87174;-48
2023/07/29 00:41:49;;;;;;;;;;;23.80;45.40;;;;;;5042823;27;87360;-47
2023/07/29 00:44:15;;;;;;;;;;;23.80;45.40;;;;;;5042287;28;87194;-45
2023/07/29 00:46:41;;;;;;;;;;;23.80;45.40;;;;;;5042315;28;89450;-47
2023/07/29 00:49:07;;;;;;;;;;;23.80;45.40;;;;;;5041261;28;90580;-47
2023/07/29 00:51:32;;;;;;;;;;;23.80;45.40;;;;;;5041960;28;87094;-46
2023/07/29 00:53:58;;;;;;;;;;;23.70;45.40;;;;;;5040035;28;87293;-45
2023/07/29 00:56:24;;;;;;;;;;;23.70;45.40;;;;;;5041941;27;88204;-47
2023/07/29 00:58:51;;;;;;;;;;;23.70;45.40;;;;;;5041813;28;87251;-46
2023/07/29 01:01:17;;;;;;;;;;;23.70;45.50;;;;;;5044544;27;88784;-45
2023/07/29 01:03:45;;;;;;;;;;;23.60;45.50;;;;;;5042391;28;87109;-46
2023/07/29 01:06:13;;;;;;;;;;;23.60;45.50;;;;;;5041810;28;87872;-49
2023/07/29 01:08:56;;;;;;;;;;;23.70;45.60;;;;;;5041718;27;87911;-45
2023/07/29 01:11:27;;;;;;;;;;;23.60;45.50;;;;;;5042918;27;86958;-48
2023/07/29 01:13:54;;;;;;;;;;;23.60;45.60;;;;;;5037109;28;87988;-45
2023/07/29 01:16:39;;;;;;;;;;;23.60;45.60;;;;;;5037504;28;87167;-47
2023/07/29 01:19:07;;;;;;;;;;;23.60;45.60;;;;;;5039478;28;87010;-49
2023/07/29 01:21:34;;;;;;;;;;;23.60;45.60;;;;;;5043322;28;89393;-46
2023/07/29 01:24:00;;;;;;;;;;;23.60;45.60;;;;;;5041972;28;87015;-47
2023/07/29 01:26:25;;;;;;;;;;;23.50;45.60;;;;;;5042557;27;87396;-45
2023/07/29 01:28:51;;;;;;;;;;;23.50;45.60;;;;;;5040946;27;89066;-47
2023/07/29 01:31:23;;;;;;;;;;;23.50;45.60;;;;;;5041832;28;86434;-47
2023/07/29 01:33:53;;;;;;;;;;;23.50;45.60;;;;;;5042084;28;86995;-46
2023/07/29 01:36:20;;;;;;;;;;;23.50;45.60;;;;;;5040656;28;89435;-47
2023/07/29 01:38:47;;;;;;;;;;;23.50;45.70;;;;;;5041157;28;87995;-46
2023/07/29 01:41:14;;;;;;;;;;;23.50;45.70;;;;;;5041912;28;87735;-47
2023/07/29 01:43:43;;;;;;;;;;;23.50;45.70;;;;;;5044498;27;88103;-47
2023/07/29 01:46:12;;;;;;;;;;;23.50;45.70;;;;;;5039555;28;88049;-51
2023/07/29 01:48:38;;;;;;;;;;;23.50;45.70;;;;;;5041308;28;88460;-48
2023/07/29 01:51:04;;;;;;;;;;;23.40;45.70;;;;;;5040999;28;87106;-50
2023/07/29 01:53:30;;;;;;;;;;;23.40;45.70;;;;;;5041745;28;87399;-52
2023/07/29 01:55:56;;;;;;;;;;;23.40;45.70;;;;;;5041566;27;87967;-47
2023/07/29 01:58:22;;;;;;;;;;;23.40;45.70;;;;;;5041900;27;87068;-47
2023/07/29 02:00:47;;;;;;;;;;;23.40;45.80;;;;;;5040449;28;87606;-50
2023/07/29 02:03:13;;;;;;;;;;;23.40;45.80;;;;;;5040489;28;88848;-48
2023/07/29 02:05:39;;;;;;;;;;;23.30;45.80;;;;;;5044195;28;87214;-49
2023/07/29 02:08:04;;;;;;;;;;;23.30;45.70;;;;;;5040261;28;89143;-49
2023/07/29 02:10:30;;;;;;;;;;;23.30;45.70;;;;;;5041210;28;87270;-47
2023/07/29 02:12:55;;;;;;;;;;;23.30;45.80;;;;;;5041905;27;87769;-46
2023/07/29 02:15:21;;;;;;;;;;;23.30;45.80;;;;;;5038855;28;87897;-45
2023/07/29 02:17:46;;;;;;;;;;;23.30;45.80;;;;;;5041484;28;87157;-47
2023/07/29 02:20:12;;;;;;;;;;;23.30;45.90;;;;;;5041311;28;87450;-48
2023/07/29 02:22:37;;;;;;;;;;;23.20;45.80;;;;;;5042055;27;88093;-47
2023/07/29 02:25:03;;;;;;;;;;;23.20;45.90;;;;;;5044579;27;87176;-45
2023/07/29 02:27:29;;;;;;;;;;;23.20;45.80;;;;;;5047144;27;87968;-47
2023/07/29 02:29:54;;;;;;;;;;;23.20;45.90;;;;;;5044635;28;87159;-46
2023/07/29 02:32:20;;;;;;;;;;;23.10;45.80;;;;;;5043958;28;87370;-45
2023/07/29 02:34:46;;;;;;;;;;;23.10;45.80;;;;;;5043967;28;87576;-49
2023/07/29 02:37:11;;;;;;;;;;;23.20;46.00;;;;;;5044082;28;87061;-45
2023/07/29 02:39:37;;;;;;;;;;;23.10;45.90;;;;;;5044752;28;87400;-46
2023/07/29 02:42:03;;;;;;;;;;;23.10;45.90;;;;;;5042755;28;87931;-46
2023/07/29 02:44:28;;;;;;;;;;;23.10;46.00;;;;;;5045054;28;86380;-45
2023/07/29 02:46:55;;;;;;;;;;;23.10;46.00;;;;;;5043218;28;87083;-46
2023/07/29 02:49:21;;;;;;;;;;;23.00;46.00;;;;;;5046581;28;89008;-45
2023/07/29 02:51:46;;;;;;;;;;;23.00;46.00;;;;;;5042231;28;87966;-46
2023/07/29 02:54:12;;;;;;;;;;;23.00;46.10;;;;;;5043892;28;88677;-47
2023/07/29 02:56:37;;;;;;;;;;;23.00;46.10;;;;;;5044357;28;87103;-45
2023/07/29 02:59:03;;;;;;;;;;;23.00;46.10;;;;;;5044541;27;87296;-45
2023/07/29 03:01:28;;;;;;;;;;;23.00;46.20;;;;;;5043151;28;87980;-46
2023/07/29 03:03:54;;;;;;;;;;;23.00;46.10;;;;;;5044212;28;87135;-46
2023/07/29 03:06:19;;;;;;;;;;;23.00;46.10;;;;;;5043464;28;87388;-47
2023/07/29 03:08:45;;;;;;;;;;;22.90;46.10;;;;;;5044212;28;87386;-47
2023/07/29 03:11:12;;;;;;;;;;;22.90;46.10;;;;;;5047154;28;87201;-45
2023/07/29 03:13:37;;;;;;;;;;;22.90;46.70;;;;;;5043708;27;90841;-45
2023/07/29 03:16:16;;;;;;;;;;;22.90;46.20;;;;;;5041435;28;88096;-46
2023/07/29 03:18:42;;;;;;;;;;;22.90;46.20;;;;;;5037945;28;88642;-45
2023/07/29 03:21:08;;;;;;;;;;;22.80;46.20;;;;;;5038439;28;88038;-46
2023/07/29 03:23:34;;;;;;;;;;;22.80;46.20;;;;;;5043016;28;87134;-49
2023/07/29 03:25:59;;;;;;;;;;;22.80;46.20;;;;;;5042546;27;87364;-45
2023/07/29 03:28:27;;;;;;;;;;;22.80;46.20;;;;;;5039591;27;88076;-47
2023/07/29 03:30:53;;;;;;;;;;;22.80;46.20;;;;;;5040137;28;88399;-45
2023/07/29 03:33:18;;;;;;;;;;;22.80;46.20;;;;;;5042718;27;87472;-45
2023/07/29 03:35:44;;;;;;;;;;;22.70;46.30;;;;;;5043085;27;87067;-48
2023/07/29 03:38:11;;;;;;;;;;;22.70;46.30;;;;;;5040857;28;87349;-45
2023/07/29 03:40:37;;;;;;;;;;;22.70;46.30;;;;;;5039493;28;90299;-47
2023/07/29 03:43:02;;;;;;;;;;;22.70;46.30;;;;;;5039753;27;87243;-48
2023/07/29 03:45:28;;;;;;;;;;;22.70;46.30;;;;;;5044418;27;87049;-46
2023/07/29 03:47:53;;;;;;;;;;;22.70;46.30;;;;;;5041031;28;87309;-46
2023/07/29 03:50:19;;;;;;;;;;;22.70;46.30;;;;;;5040992;28;88113;-46
2023/07/29 03:52:44;;;;;;;;;;;22.60;46.30;;;;;;5042754;28;88218;-45
2023/07/29 03:55:10;;;;;;;;;;;22.60;46.40;;;;;;5043383;28;87324;-46
2023/07/29 03:57:36;;;;;;;;;;;22.60;46.40;;;;;;5043830;27;87089;-49
2023/07/29 04:00:01;;;;;;;;;;;22.60;46.50;;;;;;5040662;28;87322;-47
2023/07/29 04:02:27;;;;;;;;;;;22.60;46.40;;;;;;5039093;28;87179;-45
2023/07/29 04:04:52;;;;;;;;;;;22.60;46.40;;;;;;5042527;28;88076;-45
2023/07/29 04:07:18;;;;;;;;;;;22.60;46.40;;;;;;5043023;27;88227;-50
2023/07/29 04:09:43;;;;;;;;;;;22.60;46.40;;;;;;5041157;28;87217;-47
2023/07/29 04:12:09;;;;;;;;;;;22.60;46.40;;;;;;5039079;28;88934;-45
2023/07/29 04:14:35;;;;;;;;;;;22.50;46.50;;;;;;5045604;27;89039;-45
2023/07/29 04:17:00;;;;;;;;;;;22.50;46.50;;;;;;5043959;27;88824;-47
2023/07/29 04:19:26;;;;;;;;;;;22.50;46.60;;;;;;5039509;27;88153;-46
2023/07/29 04:21:51;;;;;;;;;;;22.50;46.60;;;;;;5041067;28;86417;-45
2023/07/29 04:24:17;;;;;;;;;;;22.50;46.60;;;;;;5036940;28;87166;-46
2023/07/29 04:26:43;;;;;;;;;;;22.50;46.60;;;;;;5042098;28;89641;-45
2023/07/29 04:29:09;;;;;;;;;;;22.50;46.60;;;;;;5040715;27;88248;-45
2023/07/29 04:31:34;;;;;;;;;;;22.50;46.60;;;;;;5040637;28;88515;-48
2023/07/29 04:34:00;;;;;;;;;;;22.40;46.60;;;;;;5039262;28;88244;-46
2023/07/29 04:36:25;;;;;;;;;;;22.40;47.20;;;;;;5042206;28;87366;-45
2023/07/29 04:38:51;;;;;;;;;;;22.40;46.60;;;;;;5040360;27;88085;-47
2023/07/29 04:41:16;;;;;;;;;;;22.40;46.60;;;;;;5040545;28;87771;-46
2023/07/29 04:43:42;;;;;;;;;;;22.40;46.80;;;;;;5039241;27;87204;-46
2023/07/29 04:46:08;;;;;;;;;;;22.40;46.60;;;;;;5040951;28;87881;-46
2023/07/29 04:48:33;;;;;;;;;;;22.40;46.70;;;;;;5041678;28;86994;-45
2023/07/29 04:50:59;;;;;;;;;;;22.30;46.60;;;;;;5039024;28;87383;-48
2023/07/29 04:53:25;;;;;;;;;;;22.40;46.70;;;;;;5037584;28;89091;-45
2023/07/29 04:55:50;;;;;;;;;;;22.30;46.70;;;;;;5039328;28;87280;-49
2023/07/29 04:58:16;;;;;;;;;;;22.30;46.70;;;;;;5043438;27;87945;-45
2023/07/29 05:00:41;;;;;;;;;;;22.30;46.70;;;;;;5042238;27;87912;-46
2023/07/29 05:03:07;;;;;;;;;;;22.30;46.70;;;;;;5039889;28;87927;-46
2023/07/29 05:05:32;;;;;;;;;;;22.30;46.60;;;;;;5039989;27;88384;-45
2023/07/29 05:07:58;;;;;;;;;;;22.30;46.70;;;;;;5037755;28;87288;-46
2023/07/29 05:10:23;;;;;;;;;;;22.30;46.70;;;;;;5042663;28;87450;-48
2023/07/29 05:12:49;;;;;;;;;;;22.30;46.80;;;;;;5040153;27;88047;-46
2023/07/29 05:15:15;;;;;;;;;;;22.30;46.80;;;;;;5039206;27;87205;-44
2023/07/29 05:17:40;;;;;;;;;;;22.30;46.90;;;;;;5036225;28;87991;-45
2023/07/29 05:20:06;;;;;;;;;;;22.30;46.80;;;;;;5043984;28;87788;-46
2023/07/29 05:22:32;;;;;;;;;;;22.30;46.90;;;;;;5041367;27;87116;-48
2023/07/29 05:24:57;;;;;;;;;;;22.30;46.90;;;;;;5039723;28;88015;-45
2023/07/29 05:27:23;;;;;;;;;;;22.30;47.00;;;;;;5040092;28;87605;-49
2023/07/29 05:29:48;;;;;;;;;;;22.30;47.00;;;;;;5036410;27;87474;-47
2023/07/29 05:32:14;;;;;;;;;;;22.30;47.70;;;;;;5042888;27;87328;-46
2023/07/29 05:34:39;;;;;;;;;;;22.30;47.10;;;;;;5040037;27;88063;-45
2023/07/29 05:37:05;;;;;;;;;;;22.30;47.20;;;;;;5041252;28;87023;-46
2023/07/29 05:39:32;;;;;;;;;;;22.30;47.20;;;;;;5042450;28;89274;-47
2023/07/29 05:41:57;;;;;;;;;;;22.30;47.30;;;;;;5041086;28;88974;-46
2023/07/29 05:44:23;;;;;;;;;;;22.30;47.30;;;;;;5040099;28;88144;-49
2023/07/29 05:46:48;;;;;;;;;;;22.30;47.40;;;;;;5041879;28;87124;-48
2023/07/29 05:49:14;;;;;;;;;;;22.30;47.40;;;;;;5041601;28;87423;-46
2023/07/29 05:51:39;;;;;;;;;;;22.30;47.20;;;;;;5038111;28;88265;-46
2023/07/29 05:54:05;;;;;;;;;;;22.30;47.30;;;;;;5039145;28;87089;-47
2023/07/29 05:56:31;;;;;;;;;;;22.30;47.30;;;;;;5041694;27;87574;-46
2023/07/29 05:58:57;;;;;;;;;;;22.30;47.30;;;;;;5045261;27;88805;-46
2023/07/29 06:01:22;;;;;;;;;;;22.30;47.30;;;;;;5048121;28;87123;-47
2023/07/29 06:03:48;;;;;;;;;;;22.30;47.30;;;;;;5044497;28;87953;-49
2023/07/29 06:06:13;;;;;;;;;;;22.30;47.40;;;;;;5044523;28;88105;-47
2023/07/29 06:08:39;;;;;;;;;;;22.30;47.50;;;;;;5041936;28;88388;-49
2023/07/29 06:11:23;;;;;;;;;;;22.30;47.40;;;;;;5042224;28;88461;-46
2023/07/29 06:13:48;;;;;;;;;;;22.30;47.40;;;;;;5040145;27;87668;-48
2023/07/29 06:16:14;;;;;;;;;;;22.30;47.50;;;;;;5043774;28;89002;-49
2023/07/29 06:18:39;;;;;;;;;;;22.30;47.50;;;;;;5043638;27;88668;-49
2023/07/29 06:21:07;;;;;;;;;;;22.30;47.50;;;;;;5043347;28;88941;-47
2023/07/29 06:23:33;;;;;;;;;;;22.30;47.50;;;;;;5044658;28;88282;-49
2023/07/29 06:26:00;;;;;;;;;;;22.30;47.50;;;;;;5039543;28;87607;-50
2023/07/29 06:28:26;;;;;;;;;;;22.30;47.40;;;;;;5044741;27;89049;-49
2023/07/29 06:30:51;;;;;;;;;;;22.30;47.40;;;;;;5042870;27;89044;-47
2023/07/29 06:33:17;;;;;;;;;;;22.30;47.50;;;;;;5042350;27;88399;-45
2023/07/29 06:35:42;;;;;;;;;;;22.30;47.40;;;;;;5042349;28;87349;-45
2023/07/29 06:38:08;;;;;;;;;;;22.30;48.00;;;;;;5038468;28;88259;-45
2023/07/29 06:40:33;;;;;;;;;;;22.30;47.50;;;;;;5044388;27;87207;-45
2023/07/29 06:42:59;;;;;;;;;;;22.30;47.50;;;;;;5042202;28;87402;-46
2023/07/29 06:45:24;;;;;;;;;;;22.30;47.60;;;;;;5045509;27;88034;-45
2023/07/29 06:47:50;;;;;;;;;;;22.30;47.60;;;;;;5043911;28;88688;-46
2023/07/29 06:50:15;;;;;;;;;;;22.30;47.50;;;;;;5043741;28;89291;-45
2023/07/29 06:52:41;;;;;;;;;;;22.30;47.60;;;;;;5040812;28;87297;-46
2023/07/29 06:55:06;;;;;;;;;;;22.30;47.50;;;;;;5040250;28;89322;-45
2023/07/29 06:57:32;;;;;;;;;;;22.30;47.60;;;;;;5040989;28;88011;-46
2023/07/29 06:59:57;;;;;;;;;;;22.30;47.50;;;;;;5044768;27;87166;-46
2023/07/29 07:02:23;;;;;;;;;;;22.30;47.50;;;;;;5043751;27;87990;-45
2023/07/29 07:04:48;;;;;;;;;;;22.30;47.50;;;;;;5041619;28;87216;-45
2023/07/29 07:07:15;;;;;;;;;;;22.30;47.60;;;;;;5041437;28;87930;-45
2023/07/29 07:09:40;;;;;;;;;;;22.30;47.60;;;;;;5041625;28;88291;-47
2023/07/29 07:12:06;;;;;;;;;;;22.30;47.50;;;;;;5044736;27;86355;-46
2023/07/29 07:14:31;;;;;;;;;;;22.30;47.60;;;;;;5042591;27;87159;-45
2023/07/29 07:16:57;;;;;;;;;;;22.30;47.60;;;;;;5039624;28;88046;-46
2023/07/29 07:19:22;;;;;;;;;;;22.30;47.60;;;;;;5041414;28;88125;-46
2023/07/29 07:21:48;;;;;;;;;;;22.30;47.60;;;;;;5044875;27;89604;-48
2023/07/29 07:24:13;;;;;;;;;;;22.30;47.80;;;;;;5040669;28;88467;-45
2023/07/29 07:26:39;;;;;;;;;;;22.30;47.70;;;;;;5043661;28;87214;-46
2023/07/29 07:29:05;;;;;;;;;;;22.30;47.70;;;;;;5044727;28;87281;-45
2023/07/29 07:31:33;;;;;;;;;;;22.30;47.70;;;;;;5043869;28;87223;-46
2023/07/29 07:33:58;;;;;;;;;;;22.30;47.70;;;;;;5043711;28;87685;-48
2023/07/29 07:36:24;;;;;;;;;;;22.30;47.90;;;;;;5043961;28;87320;-47
2023/07/29 07:38:49;;;;;;;;;;;22.30;47.80;;;;;;5040632;28;87076;-46
2023/07/29 07:41:15;;;;;;;;;;;22.30;47.80;;;;;;5040825;28;87883;-46
2023/07/29 07:43:41;;;;;;;;;;;22.30;47.80;;;;;;5037721;28;88998;-45
2023/07/29 07:46:06;;;;;;;;;;;22.30;47.90;;;;;;5043792;27;88314;-48
2023/07/29 07:48:33;;;;;;;;;;;22.40;47.80;;;;;;5044679;27;87466;-46
2023/07/29 07:50:58;;;;;;;;;;;22.30;47.80;;;;;;5041262;28;88078;-48
2023/07/29 07:53:25;;;;;;;;;;;22.30;47.80;;;;;;5037872;28;88745;-47
2023/07/29 07:55:51;;;;;;;;;;;22.40;47.80;;;;;;5042162;28;87168;-45
2023/07/29 07:58:16;;;;;;;;;;;22.30;47.70;;;;;;5043882;27;87206;-47
2023/07/29 08:00:42;;;;;;;;;;;22.40;47.80;;;;;;5040725;27;87514;-45
2023/07/29 08:03:08;;;;;;;;;;;22.40;47.80;;;;;;5037593;28;89496;-48
2023/07/29 08:05:33;;;;;;;;;;;22.40;47.80;;;;;;5041467;28;87133;-47
2023/07/29 08:07:59;;;;;;;;;;;22.40;47.80;;;;;;5043030;27;89473;-46
2023/07/29 08:10:24;;;;;;;;;;;22.40;47.70;;;;;;5041933;28;89396;-46
2023/07/29 08:12:50;;;;;;;;;;;22.40;48.00;;;;;;5036837;28;89647;-46
2023/07/29 08:15:15;;;;;;;;;;;22.40;48.00;;;;;;5039280;27;88330;-46
2023/07/29 08:17:41;;;;;;;;;;;22.40;47.90;;;;;;5042419;27;87298;-47
2023/07/29 08:20:07;;;;;;;;;;;22.40;47.80;;;;;;5038600;28;87376;-47
2023/07/29 08:22:32;;;;;;;;;;;22.40;48.30;;;;;;5038794;28;88867;-49
2023/07/29 08:24:58;;;;;;;;;;;22.40;47.80;;;;;;5042776;28;86306;-44
2023/07/29 08:27:23;;;;;;;;;;;22.40;48.30;;;;;;5043782;27;87154;-46
2023/07/29 08:29:49;;;;;;;;;;;22.40;48.00;;;;;;5039638;27;88893;-49
2023/07/29 08:32:14;;;;;;;;;;;22.40;48.10;;;;;;5041010;28;88003;-48
2023/07/29 08:34:40;;;;;;;;;;;22.40;47.80;;;;;;5042263;28;88167;-46
2023/07/29 08:37:05;;;;;;;;;;;22.40;47.90;;;;;;5042722;27;87123;-49
2023/07/29 08:39:31;;;;;;;;;;;22.40;47.90;;;;;;5039570;28;87931;-46
2023/07/29 08:42:00;;;;;;;;;;;22.40;47.90;;;;;;5037156;28;88020;-49
2023/07/29 08:44:27;;;;;;;;;;;22.50;48.10;;;;;;5038689;28;87056;-48
2023/07/29 08:46:53;;;;;;;;;;;22.40;47.90;;;;;;5041470;27;87329;-47
2023/07/29 08:49:19;;;;;;;;;;;22.50;48.30;;;;;;5039331;28;88625;-48
2023/07/29 08:51:48;;;;;;;;;;;22.50;48.60;;;;;;5039856;28;87152;-46
2023/07/29 08:54:14;;;;;;;;;;;22.40;49.30;;;;;;5043299;28;87111;-47
2023/07/29 08:56:42;;;;;;;;;;;22.40;48.80;;;;;;5041049;27;88196;-46
2023/07/29 08:59:08;;;;;;;;;;;22.50;48.40;;;;;;5039795;28;88393;-45
2023/07/29 09:01:34;;;;;;;;;;;22.50;48.50;;;;;;5040077;27;88890;-45
2023/07/29 09:04:00;;;;;;;;;;;22.50;48.90;;;;;;5042035;28;87424;-47
2023/07/29 09:06:27;;;;;;;;;;;22.50;49.20;;;;;;5041860;27;88858;-46
2023/07/29 09:08:58;;;;;;;;;;;22.50;49.20;;;;;;5037946;28;88432;-48
2023/07/29 09:11:24;;;;;;;;;;;22.50;48.80;;;;;;5036692;28;87889;-48
2023/07/29 09:13:49;;;;;;;;;;;22.60;49.00;;;;;;5043809;27;90038;-48
2023/07/29 09:16:15;;;;;;;;;;;22.50;49.20;;;;;;5043183;27;87977;-46
2023/07/29 09:18:41;;;;;;;;;;;22.50;49.30;;;;;;5041323;28;88905;-45
2023/07/29 09:21:06;;;;;;;;;;;22.60;49.40;;;;;;5041332;28;89376;-47
2023/07/29 09:23:44;;;;;;;;;;;22.60;49.40;;;;;;5042074;28;87113;-45
2023/07/29 09:26:10;;;;;;;;;;;22.60;49.40;;;;;;5038088;28;87176;-46
2023/07/29 09:28:36;;;;;;;;;;;22.60;49.40;;;;;;5041745;28;87949;-48
2023/07/29 09:31:02;;;;;;;;;;;22.60;49.40;;;;;;5040375;27;87205;-48
2023/07/29 09:33:28;;;;;;;;;;;22.60;49.50;;;;;;5041923;28;87604;-47
2023/07/29 09:35:53;;;;;;;;;;;22.70;49.40;;;;;;5039070;28;87317;-46
2023/07/29 09:38:25;;;;;;;;;;;22.80;49.50;;;;;;5048560;28;86267;-46
2023/07/29 09:40:54;;;;;;;;;;;22.80;49.50;;;;;;5038274;27;88287;-47
2023/07/29 09:43:24;;;;;;;;;;;22.80;49.50;;;;;;5039403;28;87173;-50
2023/07/29 09:45:51;;;;;;;;;;;22.80;49.30;;;;;;5042236;27;88046;-48
2023/07/29 09:48:19;;;;;;;;;;;22.80;48.90;;;;;;5038271;28;88109;-50
2023/07/29 09:50:46;;;;;;;;;;;22.80;49.40;;;;;;5041236;28;87138;-47
2023/07/29 09:53:12;;;;;;;;;;;22.90;48.80;;;;;;5043935;27;87476;-47
2023/07/29 09:55:37;;;;;;;;;;;22.90;48.80;;;;;;5041092;28;89270;-48
2023/07/29 09:58:07;;;;;;;;;;;22.90;48.70;;;;;;5042299;28;87561;-46
2023/07/29 10:00:33;;;;;;;;;;;22.90;49.30;;;;;;5043451;27;88028;-46
2023/07/29 10:02:59;;;;;;;;;;;22.90;49.30;;;;;;5045426;27;86413;-46
2023/07/29 10:05:28;;;;;;;;;;;23.00;48.70;;;;;;5042725;28;87936;-48
2023/07/29 10:07:54;;;;;;;;;;;23.00;48.70;;;;;;5042068;28;88223;-46
2023/07/29 10:10:19;;;;;;;;;;;23.00;48.70;;;;;;5042535;28;88055;-48
2023/07/29 10:12:45;;;;;;;;;;;23.00;48.70;;;;;;5044029;27;87619;-51
2023/07/29 10:15:11;;;;;;;;;;;23.00;48.80;;;;;;5042176;27;88026;-50
2023/07/29 10:17:38;;;;;;;;;;;23.00;48.70;;;;;;5039868;28;87276;-49
2023/07/29 10:20:05;;;;;;;;;;;23.00;48.90;;;;;;5047128;28;87492;-46
2023/07/29 10:22:36;;;;;;;;;;;23.00;48.80;;;;;;5043386;27;88786;-49
2023/07/29 10:25:07;;;;;;;;;;;23.10;48.70;;;;;;5042065;28;87351;-49
2023/07/29 10:27:41;;;;;;;;;;;23.10;48.70;;;;;;5037875;28;87333;-48
2023/07/29 10:30:07;;;;;;;;;;;23.10;48.70;;;;;;5045199;27;87059;-47
2023/07/29 10:32:33;;;;;;;;;;;23.10;48.70;;;;;;5042655;27;89336;-49
2023/07/29 10:34:59;;;;;;;;;;;23.20;48.60;;;;;;5041015;28;89120;-46
2023/07/29 10:37:24;;;;;;;;;;;23.20;48.60;;;;;;5039595;28;87723;-52
2023/07/29 10:39:53;;;;;;;;;;;23.20;48.60;;;;;;5044408;28;87756;-49
2023/07/29 10:42:19;;;;;;;;;;;23.20;48.50;;;;;;5043169;27;89765;-48
2023/07/29 10:44:52;;;;;;;;;;;23.20;48.60;;;;;;5042034;28;87673;-47
2023/07/29 10:47:27;;;;;;;;;;;23.30;49.20;;;;;;5041567;27;87905;-50
2023/07/29 10:49:54;;;;;;;;;;;23.30;48.60;;;;;;5044095;28;87116;-46
2023/07/29 10:52:35;;;;;;;;;;;23.30;48.50;;;;;;5044492;28;88890;-46
2023/07/29 10:55:01;;;;;;;;;;;23.40;48.50;;;;;;5044069;28;87824;-48
2023/07/29 10:57:33;;;;;;;;;;;23.40;48.40;;;;;;5043605;28;87670;-46
2023/07/29 10:59:59;;;;;;;;;;;23.40;48.50;;;;;;5042491;28;88032;-48
2023/07/29 11:02:32;;;;;;;;;;;23.40;48.50;;;;;;5041001;27;87112;-47
2023/07/29 11:04:59;;;;;;;;;;;23.50;48.50;;;;;;5040753;28;87272;-46
2023/07/29 11:07:27;;;;;;;;;;;23.50;48.30;;;;;;5043157;28;89637;-46
2023/07/29 11:09:55;;;;;;;;;;;23.50;48.40;;;;;;5044794;27;87559;-47
2023/07/29 11:12:34;;;;;;;;;;;23.50;48.30;;;;;;5040694;28;88609;-48
2023/07/29 11:15:02;;;;;;;;;;;23.50;48.30;;;;;;5040535;28;87648;-46
2023/07/29 11:17:29;;;;;;;;;;;23.50;48.30;;;;;;5044289;27;86382;-50
2023/07/29 11:19:56;;;;;;;;;;;23.60;48.30;;;;;;5043739;27;87301;-46
2023/07/29 11:22:21;;;;;;;;;;;23.60;48.20;;;;;;5041688;28;88593;-47
2023/07/29 11:24:47;;;;;;;;;;;23.60;48.30;;;;;;5040855;28;89136;-47
2023/07/29 11:27:12;;;;;;;;;;;23.60;48.20;;;;;;5045684;28;88479;-45
2023/07/29 11:29:38;;;;;;;;;;;23.60;48.10;;;;;;5043883;27;87119;-50
2023/07/29 11:32:03;;;;;;;;;;;23.70;48.20;;;;;;5039645;27;87547;-46
2023/07/29 11:34:32;;;;;;;;;;;23.70;48.20;;;;;;5039432;28;89028;-46
2023/07/29 11:36:57;;;;;;;;;;;23.70;48.20;;;;;;5043514;28;87102;-47
2023/07/29 11:39:23;;;;;;;;;;;23.70;48.10;;;;;;5043702;27;87315;-45
2023/07/29 11:41:48;;;;;;;;;;;23.70;48.10;;;;;;5038774;28;89572;-46
2023/07/29 11:44:17;;;;;;;;;;;23.80;48.10;;;;;;5039034;28;87114;-46
2023/07/29 11:46:43;;;;;;;;;;;23.80;48.00;;;;;;5045738;27;89421;-46
2023/07/29 11:49:08;;;;;;;;;;;23.90;48.10;;;;;;5041100;27;88086;-46
2023/07/29 11:51:34;;;;;;;;;;;23.80;48.00;;;;;;5040029;28;88456;-47
2023/07/29 11:53:59;;;;;;;;;;;23.90;48.00;;;;;;5038528;28;88025;-46
2023/07/29 11:56:25;;;;;;;;;;;23.90;48.10;;;;;;5042600;27;87178;-47
2023/07/29 11:58:51;;;;;;;;;;;23.90;48.00;;;;;;5040797;28;87043;-46
2023/07/29 12:01:16;;;;;;;;;;;23.90;47.90;;;;;;5037879;27;87981;-46
2023/07/29 12:03:42;;;;;;;;;;;24.00;47.90;;;;;;5041407;28;87186;-46
2023/07/29 12:06:08;;;;;;;;;;;24.00;47.80;;;;;;5045267;27;87393;-46
2023/07/29 12:08:33;;;;;;;;;;;24.00;47.80;;;;;;5042938;28;88526;-46
2023/07/29 12:10:59;;;;;;;;;;;24.00;47.80;;;;;;5038512;28;87409;-46
2023/07/29 12:13:25;;;;;;;;;;;24.10;47.80;;;;;;5041826;28;89208;-47
2023/07/29 12:15:50;;;;;;;;;;;24.10;47.70;;;;;;5043417;27;87100;-47
2023/07/29 12:18:16;;;;;;;;;;;24.10;47.70;;;;;;5039572;28;87615;-47
2023/07/29 12:20:41;;;;;;;;;;;24.10;47.60;;;;;;5036329;28;88115;-48
2023/07/29 12:23:08;;;;;;;;;;;24.10;47.60;;;;;;5042154;28;87193;-50
2023/07/29 12:25:34;;;;;;;;;;;24.20;47.60;;;;;;5043917;27;88768;-46
2023/07/29 12:28:06;;;;;;;;;;;24.20;47.60;;;;;;5038989;28;87704;-47
2023/07/29 12:30:32;;;;;;;;;;;24.20;47.60;;;;;;5043301;28;86998;-46
2023/07/29 12:32:57;;;;;;;;;;;24.20;47.60;;;;;;5040475;27;89102;-45
2023/07/29 12:35:23;;;;;;;;;;;24.30;47.60;;;;;;5042863;28;87177;-46
2023/07/29 12:37:58;;;;;;;;;;;24.30;47.60;;;;;;5042432;27;90005;-48
2023/07/29 12:40:24;;;;;;;;;;;24.30;47.60;;;;;;5037887;28;87886;-50
2023/07/29 12:42:51;;;;;;;;;;;24.60;44.10;;;;;;5037787;27;87245;-45
2023/07/29 12:45:17;;;;;;;;;;;25.00;41.90;;;;;;5041041;28;87448;-50
2023/07/29 12:47:43;;;;;;;;;;;24.90;41.70;;;;;;5041480;27;88233;-48
2023/07/29 12:50:09;;;;;;;;;;;25.00;43.00;;;;;;5038302;28;87132;-45
2023/07/29 12:52:34;;;;;;;;;;;25.00;41.30;;;;;;5039103;28;89140;-50
2023/07/29 12:55:00;;;;;;;;;;;25.10;41.90;;;;;;5040622;28;86426;-55
2023/07/29 12:57:25;;;;;;;;;;;25.00;42.80;;;;;;5038243;28;87147;-51
2023/07/29 12:59:51;;;;;;;;;;;25.00;41.50;;;;;;5040483;28;88179;-46
2023/07/29 13:02:16;;;;;;;;;;;25.20;40.70;;;;;;5041704;28;88546;-46
2023/07/29 13:04:42;;;;;;;;;;;25.30;41.10;;;;;;5041315;27;87680;-53
2023/07/29 13:07:07;;;;;;;;;;;25.20;40.40;;;;;;5039138;27;89124;-53
2023/07/29 13:09:33;;;;;;;;;;;25.40;40.40;;;;;;5037271;28;87336;-62
2023/07/29 13:11:58;;;;;;;;;;;25.50;41.40;;;;;;5041736;28;87555;-53
2023/07/29 13:14:26;;;;;;;;;;;25.70;40.80;;;;;;5043636;27;88327;-54
2023/07/29 13:16:51;;;;;;;;;;;25.70;40.90;;;;;;5037681;28;88630;-56
2023/07/29 13:19:18;;;;;;;;;;;25.70;39.40;;;;;;5038550;28;87194;-54
2023/07/29 13:21:43;;;;;;;;;;;25.80;40.00;;;;;;5043151;27;87432;-55
2023/07/29 13:24:09;;;;;;;;;;;25.70;39.80;;;;;;5039017;27;87512;-52
2023/07/29 13:26:35;;;;;;;;;;;25.70;39.20;;;;;;5034356;27;90766;-51
2023/07/29 13:29:00;;;;;;;;;;;25.80;38.40;;;;;;5041652;27;87301;-60
2023/07/29 13:31:26;;;;;;;;;;;25.80;39.50;;;;;;5038984;27;87481;-49
2023/07/29 13:33:51;;;;;;;;;;;25.90;39.60;;;;;;5038550;28;88462;-57
2023/07/29 13:36:17;;;;;;;;;;;26.00;39.00;;;;;;5040874;28;87170;-57
2023/07/29 13:38:42;;;;;;;;;;;26.00;40.40;;;;;;5041767;27;88043;-54
2023/07/29 13:41:08;;;;;;;;;;;25.90;40.80;;;;;;5042046;27;87089;-53
2023/07/29 13:43:33;;;;;;;;;;;25.90;40.50;;;;;;5035010;28;88801;-56
2023/07/29 13:45:59;;;;;;;;;;;25.90;40.90;;;;;;5036691;28;88208;-54
2023/07/29 13:48:25;;;;;;;;;;;25.80;40.50;;;;;;5040975;28;87236;-58
2023/07/29 13:50:51;;;;;;;;;;;25.80;40.80;;;;;;5036795;27;88776;-57
2023/07/29 13:53:16;;;;;;;;;;;25.90;40.70;;;;;;5038379;28;88193;-59
2023/07/29 13:55:42;;;;;;;;;;;25.90;40.80;;;;;;5038616;28;87495;-61
2023/07/29 13:58:07;;;;;;;;;;;25.90;41.40;;;;;;5040546;28;87544;-56
2023/07/29 14:00:33;;;;;;;;;;;25.90;41.70;;;;;;5036426;27;88936;-57
2023/07/29 14:02:59;;;;;;;;;;;25.80;40.30;;;;;;5030196;28;89025;-53
2023/07/29 14:05:24;;;;;;;;;;;25.80;41.10;;;;;;5037501;28;87853;-58
2023/07/29 14:07:50;;;;;;;;;;;25.80;40.20;;;;;;5042082;28;86477;-55
2023/07/29 14:10:15;;;;;;;;;;;25.80;39.80;;;;;;5041277;27;87885;-55